Kyle, South Dakota
Current Conditions -  °F | °C
As of 10:52 AM on Friday 19 Dec 2014 (Local Time) from KIEN Reporting Station
Clear Clear  
Wind Chill: 28°   Ceiling: Unl
Heat Index: 36°   Visibility: 10mi
Dew Point: 20°   Wind: 13mph
Humidity: 52%   Direction: 240°WSW
Pressure: 29.99"   Gusts: NA
Location:  43.43°N, 102.17°W
Report Text: KIEN 191752Z AUTO 24011KT 10SM CLR 02/M07 A2999 RMK AO2 SLP187 T00221067 10022 21089 58008
Loading
Personal Weather Stations






























Interactive Weather Map New forecast layout! Learn more

10-Day Weather Forecast

Advertisements
Track Severe Weather on mobile